This is the latest recevied weather packets stored in our database for station/object VA3XLC. If no packets are shown the sender has not sent any weather packets the latest 10 day(s).
| Time | Temp. | Humidity | Pressure | Rain* | Wind** | Luminosity | Snow |
|---|---|---|---|---|---|---|---|
| 1777831654 | 14.44° C | 38% | 977.2 hPa | - | - | 251 W/m² | - |
| 1777830433 | 15° C | 33% | 977.1 hPa | - | - | 887 W/m² | - |
| 1777829811 | 14.44° C | 36% | 977.1 hPa | - | - | 560 W/m² | - |
| 1777829511 | 14.44° C | 35% | 977.1 hPa | - | - | 320 W/m² | - |
| 1777826442 | 13.89° C | 38% | 978 hPa | - | - | 867 W/m² | - |
| 1777820289 | 10.56° C | 41% | 979.1 hPa | - | - | 487 W/m² | - |
| 1777816944 | 8.89° C | 42% | 979.8 hPa | - | - | 617 W/m² | - |
| 1777816042 | 8.33° C | 45% | 979.9 hPa | - | - | 568 W/m² | - |
| 1777815441 | 7.78° C | 47% | 980.1 hPa | - | - | 541 W/m² | - |
| 1777814840 | 7.78° C | 47% | 980.2 hPa | - | - | 518 W/m² | - |
| 1777813638 | 7.22° C | 43% | 980.3 hPa | - | - | 503 W/m² | - |
| 1777809972 | 3.89° C | 62% | 980.9 hPa | - | - | 270 W/m² | - |
| 1777808470 | 3.33° C | 66% | 980.8 hPa | - | - | 74 W/m² | - |
| 1777808170 | 3.33° C | 66% | 980.9 hPa | - | - | 66 W/m² | - |
| 1777806668 | 2.78° C | 68% | 980.9 hPa | - | - | 43 W/m² | - |
| 1777805467 | 2.22° C | 71% | 980.7 hPa | - | - | 41 W/m² | - |
| 1777805167 | 1.67° C | 71% | 980.8 hPa | - | - | 37 W/m² | - |
| 1777802101 | 2.22° C | 71% | 980.6 hPa | - | - | 0 W/m² | - |
| 1777801200 | 2.22° C | 71% | 980.6 hPa | - | - | 0 W/m² | - |
| 1777800599 | 2.22° C | 70% | 980.7 hPa | - | - | 0 W/m² | - |
| 1777799999 | 2.22° C | 70% | 980.8 hPa | - | - | 0 W/m² | - |
| 1777797597 | 3.33° C | 68% | 980.9 hPa | - | - | 0 W/m² | - |
| 1777796375 | 2.22° C | 71% | 980.8 hPa | - | - | 0 W/m² | - |
| 1777793952 | 2.22° C | 72% | 980.9 hPa | - | - | 0 W/m² | - |
| 1777793652 | 2.22° C | 72% | 980.9 hPa | - | - | 0 W/m² | - |
* Rain since midnight (hover to see other rain measurements)
** Current wind speed in m/s (hover to see current wind gust speed)